Time;durP1;ratioP1;P1;durP2;ratioP2;P2;SDS_P1;SDS_P2;PMS_P1;PMS_P2;Temp;Humidity;BMP_temperature;BMP_pressure;BME280_temperature;BME280_humidity;BME280_pressure;Samples;Min_cycle;Max_cycle;Signal;HPM_P1;HPM_P2
2023/06/03 00:38:27;;;;;;;2.63;1.50;;;7.70;88.10;;;;;;5571730;24;20594;-81
2023/06/03 01:14:08;;;;;;;2.43;1.80;;;7.20;90.70;;;;;;5730910;24;20472;-82
2023/06/03 01:44:40;;;;;;;4.90;2.07;;;7.10;91.80;;;;;;5719624;24;20535;-79
2023/06/03 02:10:11;;;;;;;1.60;1.30;;;7.20;91.20;;;;;;5579173;24;20552;-80
2023/06/03 02:30:39;;;;;;;5.00;1.80;;;6.90;92.60;;;;;;5666672;24;20215;-80
2023/06/03 02:56:07;;;;;;;3.07;1.50;;;7.00;92.30;;;;;;5553001;25;20196;-84
2023/06/03 03:36:37;;;;;;;2.10;1.60;;;7.50;91.10;;;;;;5819607;23;20605;-81
2023/06/03 04:01:23;;;;;;;1.63;1.20;;;7.70;90.30;;;;;;5589179;24;20632;-80
2023/06/03 04:21:56;;;;;;;2.43;1.50;;;8.10;90.00;;;;;;5577822;24;20455;-80
2023/06/03 04:42:33;;;;;;;4.20;1.60;;;9.40;86.20;;;;;;5651430;24;20296;-81
2023/06/03 05:02:54;;;;;;;1.80;1.60;;;9.60;84.70;;;;;;5623988;24;20207;-82
2023/06/03 05:37:46;;;;;;;3.47;1.80;;;10.10;83.70;;;;;;5496353;25;20498;-84
2023/06/03 06:13:53;;;;;;;5.30;1.70;;;11.30;81.00;;;;;;5590947;24;20498;-80
2023/06/03 06:43:40;;;;;;;2.77;1.47;;;12.30;78.80;;;;;;5684576;24;20507;-84
2023/06/03 07:04:34;;;;;;;3.67;1.30;;;13.20;77.50;;;;;;5738414;24;20438;-81
2023/06/03 07:30:07;;;;;;;2.70;1.43;;;13.10;75.10;;;;;;5709145;24;20206;-84
2023/06/03 07:34:21;;;;;;;1.97;1.20;;;13.30;73.60;;;;;;5662056;24;20492;-84
2023/06/03 07:54:48;;;;;;;3.27;1.50;;;13.90;68.90;;;;;;5667566;24;20879;-82
2023/06/03 08:09:43;;;;;;;1.17;1.00;;;14.50;56.70;;;;;;6061008;23;20708;-85
2023/06/03 08:35:23;;;;;;;2.10;1.10;;;14.90;52.50;;;;;;5968755;23;20672;-83
2023/06/03 09:26:09;;;;;;;1.00;0.90;;;15.30;49.50;;;;;;5871356;24;20924;-84
2023/06/03 10:01:32;;;;;;;1.10;1.00;;;15.90;46.70;;;;;;5742852;24;20711;-82
2023/06/03 11:02:27;;;;;;;1.00;0.80;;;15.60;45.40;;;;;;5648002;24;20343;-81
2023/06/03 11:27:36;;;;;;;1.07;0.97;;;15.50;42.50;;;;;;5613751;24;21189;-84
2023/06/03 11:52:53;;;;;;;2.70;0.73;;;15.80;43.40;;;;;;5741434;24;20537;-84
2023/06/03 12:13:23;;;;;;;1.57;1.00;;;16.20;42.80;;;;;;5807379;24;20244;-88
2023/06/03 13:03:54;;;;;;;2.70;0.90;;;19.30;39.40;;;;;;5441660;25;20714;-83
2023/06/03 13:39:42;;;;;;;0.80;0.80;;;19.40;39.70;;;;;;5641471;24;20230;-86
2023/06/03 15:00:40;;;;;;;1.80;0.80;;;22.90;33.50;;;;;;5616902;24;20176;-86
2023/06/03 15:25:59;;;;;;;0.90;0.90;;;23.60;32.60;;;;;;5657266;24;20394;-84
2023/06/03 16:31:54;;;;;;;2.90;1.00;;;17.70;35.60;;;;;;5987741;23;20332;-82
2023/06/03 16:52:23;;;;;;;2.63;0.80;;;17.50;35.60;;;;;;5847062;24;20484;-81
2023/06/03 18:28:08;;;;;;;2.83;1.30;;;15.70;38.20;;;;;;5577491;24;20196;-81
2023/06/03 18:48:38;;;;;;;3.20;1.50;;;14.90;40.50;;;;;;5637467;24;21001;-81
2023/06/03 19:14:14;;;;;;;4.90;2.20;;;13.80;42.60;;;;;;5791876;24;20652;-82
2023/06/03 19:44:48;;;;;;;4.40;3.10;;;12.40;59.20;;;;;;5766081;24;20230;-80
2023/06/03 20:09:41;;;;;;;5.73;3.30;;;11.60;78.10;;;;;;5680315;24;20584;-83
2023/06/03 20:45:10;;;;;;;8.47;4.70;;;10.70;79.50;;;;;;5585008;24;20753;-84
2023/06/03 21:25:37;;;;;;;11.83;6.53;;;9.80;84.70;;;;;;5897692;23;20904;-84
2023/06/03 21:56:34;;;;;;;9.13;5.63;;;8.90;87.60;;;;;;5797152;24;20287;-83
2023/06/03 22:32:10;;;;;;;13.23;10.57;;;8.30;90.70;;;;;;5910988;23;20166;-80
2023/06/03 22:36:39;;;;;;;16.60;11.87;;;8.30;91.10;;;;;;5826975;23;20323;-81
2023/06/03 23:02:16;;;;;;;9.60;6.70;;;8.00;92.10;;;;;;5828456;23;20428;-82
2023/06/03 23:32:39;;;;;;;10.23;7.30;;;7.60;95.30;;;;;;5884835;23;20587;-81
